createdAt,value
2023-05-09T00:01:31.761Z,59.38
2023-05-09T00:03:59.652Z,58.00
2023-05-09T00:06:27.754Z,59.40
2023-05-09T00:08:56.028Z,56.47
2023-05-09T00:11:23.031Z,57.63
2023-05-09T00:13:51.015Z,55.85
2023-05-09T00:16:20.603Z,56.75
2023-05-09T00:18:47.724Z,63.47
2023-05-09T00:21:14.648Z,60.28
2023-05-09T00:23:41.626Z,59.95
2023-05-09T00:26:09.652Z,59.97
2023-05-09T00:28:37.450Z,60.50
2023-05-09T00:31:04.765Z,57.03
2023-05-09T00:33:32.676Z,64.32
2023-05-09T00:35:59.529Z,61.95
2023-05-09T00:38:26.574Z,65.30
2023-05-09T00:40:53.732Z,62.83
2023-05-09T00:43:28.672Z,58.10
2023-05-09T00:45:55.649Z,62.25
2023-05-09T00:48:22.706Z,63.03
2023-05-09T00:50:52.893Z,62.35
2023-05-09T00:53:20.777Z,62.13
2023-05-09T00:55:47.794Z,60.55
2023-05-09T00:58:15.029Z,60.75
2023-05-09T01:00:43.025Z,66.93
2023-05-09T01:03:16.239Z,56.00
2023-05-09T01:05:56.719Z,62.20
2023-05-09T01:08:47.056Z,62.38
2023-05-09T01:11:28.624Z,65.65
2023-05-09T01:13:55.570Z,64.03
2023-05-09T01:16:40.051Z,65.90
2023-05-09T01:19:28.929Z,64.13
2023-05-09T01:21:57.233Z,56.72
2023-05-09T01:24:50.218Z,66.05
2023-05-09T01:27:19.829Z,61.45
2023-05-09T01:29:48.727Z,66.50
2023-05-09T01:32:19.482Z,60.30
2023-05-09T01:34:49.667Z,63.65
2023-05-09T01:37:19.744Z,68.20
2023-05-09T01:39:49.945Z,67.18
2023-05-09T01:42:19.939Z,66.55
2023-05-09T01:44:48.856Z,67.70
2023-05-09T01:47:18.245Z,66.63
2023-05-09T01:49:48.062Z,64.55
2023-05-09T01:52:18.704Z,69.82
2023-05-09T01:54:46.339Z,72.30
2023-05-09T01:57:14.519Z,67.15
2023-05-09T01:59:48.162Z,68.07
2023-05-09T02:02:15.802Z,71.53
2023-05-09T02:04:45.223Z,73.65
2023-05-09T02:07:13.573Z,71.75
2023-05-09T02:09:41.276Z,69.68
2023-05-09T02:12:08.344Z,70.95
2023-05-09T02:14:35.226Z,71.72
2023-05-09T02:17:06.967Z,71.18
2023-05-09T02:19:35.752Z,69.65
2023-05-09T02:22:06.121Z,71.82
2023-05-09T02:24:34.731Z,74.30
2023-05-09T02:27:07.340Z,69.45
2023-05-09T02:29:46.466Z,76.70
2023-05-09T02:32:22.084Z,75.40
2023-05-09T02:34:53.325Z,72.68
2023-05-09T02:37:21.589Z,73.40
2023-05-09T02:39:48.905Z,69.78
2023-05-09T02:42:27.795Z,70.75
2023-05-09T02:44:55.521Z,69.97
2023-05-09T02:47:22.795Z,69.65
2023-05-09T02:49:49.718Z,68.47
2023-05-09T02:52:16.854Z,63.83
2023-05-09T02:54:43.809Z,70.90
2023-05-09T02:57:11.061Z,68.03
2023-05-09T02:59:37.913Z,62.15
2023-05-09T03:02:05.219Z,65.53
2023-05-09T03:04:32.324Z,73.07
2023-05-09T03:06:59.789Z,61.88
2023-05-09T03:09:31.811Z,71.47
2023-05-09T03:11:58.780Z,72.25
2023-05-09T03:14:26.044Z,71.40
2023-05-09T03:16:55.704Z,75.68
2023-05-09T03:19:28.284Z,70.50
2023-05-09T03:21:58.074Z,76.60
2023-05-09T03:24:28.223Z,68.60
2023-05-09T03:26:55.270Z,63.38
2023-05-09T03:29:22.108Z,63.33
2023-05-09T03:31:56.115Z,66.50
2023-05-09T03:34:23.197Z,64.53
2023-05-09T03:36:50.036Z,65.00
2023-05-09T03:39:16.893Z,66.32
2023-05-09T03:41:46.584Z,62.78
2023-05-09T03:44:13.667Z,66.60
2023-05-09T03:46:43.466Z,59.00
2023-05-09T03:49:10.639Z,52.50
2023-05-09T03:51:41.307Z,62.88
2023-05-09T03:54:12.496Z,61.70
2023-05-09T03:56:40.699Z,57.15
2023-05-09T03:59:07.648Z,60.53
2023-05-09T04:01:35.052Z,55.90
2023-05-09T04:04:03.549Z,56.63
2023-05-09T04:06:34.262Z,52.90
2023-05-09T04:09:04.460Z,61.03
2023-05-09T04:11:31.260Z,54.15
2023-05-09T04:13:59.832Z,54.75
2023-05-09T04:16:33.575Z,50.15
2023-05-09T04:19:00.856Z,42.13
2023-05-09T04:21:27.656Z,43.78
2023-05-09T04:23:58.532Z,46.53
2023-05-09T04:26:33.276Z,40.72
2023-05-09T04:29:00.328Z,45.63
2023-05-09T04:31:27.707Z,38.67
2023-05-09T04:33:55.661Z,42.80
2023-05-09T04:36:23.086Z,40.25
2023-05-09T04:38:49.996Z,38.30
2023-05-09T04:41:23.096Z,39.03
2023-05-09T04:43:56.941Z,35.17
2023-05-09T04:46:26.005Z,32.05
2023-05-09T04:48:54.006Z,37.17
2023-05-09T04:51:20.865Z,38.33
2023-05-09T04:53:47.900Z,35.20
2023-05-09T04:56:19.803Z,34.85
2023-05-09T04:58:48.215Z,38.30
2023-05-09T05:01:16.693Z,31.05
2023-05-09T05:03:43.787Z,37.88
2023-05-09T05:06:10.868Z,35.45
2023-05-09T05:08:41.592Z,34.72
2023-05-09T05:11:09.624Z,34.58
2023-05-09T05:13:36.677Z,34.28
2023-05-09T05:16:04.059Z,31.13
2023-05-09T05:18:33.858Z,33.75
2023-05-09T05:21:01.164Z,31.15
2023-05-09T05:23:28.117Z,26.92
2023-05-09T05:25:55.871Z,31.20
2023-05-09T05:28:23.602Z,29.65
2023-05-09T05:30:50.661Z,25.88
2023-05-09T05:33:17.461Z,30.05
2023-05-09T05:35:44.868Z,29.35
2023-05-09T05:38:11.884Z,29.30
2023-05-09T05:40:39.690Z,22.85
2023-05-09T05:43:19.223Z,26.15
2023-05-09T05:45:46.592Z,24.17
2023-05-09T05:48:17.582Z,26.02
2023-05-09T05:50:47.281Z,23.17
2023-05-09T05:53:17.212Z,22.58
2023-05-09T05:55:46.258Z,24.48
2023-05-09T05:58:13.760Z,22.80
2023-05-09T06:00:41.597Z,22.88
2023-05-09T06:03:14.088Z,24.38
2023-05-09T06:05:47.215Z,27.13
2023-05-09T06:08:14.415Z,23.85
2023-05-09T06:13:57.174Z,20.63
2023-05-09T06:16:25.039Z,26.90
2023-05-09T06:18:54.085Z,21.92
2023-05-09T06:21:22.121Z,25.98
2023-05-09T06:24:05.111Z,24.70
2023-05-09T06:26:36.603Z,20.10
2023-05-09T06:29:05.856Z,24.02
2023-05-09T06:31:33.106Z,21.88
2023-05-09T06:33:59.916Z,25.77
2023-05-09T06:36:26.777Z,25.35
2023-05-09T06:38:53.513Z,23.77
2023-05-09T06:41:21.444Z,22.83
2023-05-09T06:43:49.518Z,20.48
2023-05-09T06:46:16.865Z,23.80
2023-05-09T06:48:43.675Z,24.73
2023-05-09T06:51:11.661Z,23.88
2023-05-09T06:53:38.585Z,24.17
2023-05-09T06:56:06.364Z,23.40
2023-05-09T06:58:33.317Z,26.15
2023-05-09T07:01:00.444Z,19.70
2023-05-09T07:03:27.346Z,22.73
2023-05-09T07:05:59.067Z,22.83
2023-05-09T07:08:26.954Z,23.33
2023-05-09T07:10:54.515Z,25.08
2023-05-09T07:13:21.735Z,22.98
2023-05-09T07:15:48.586Z,23.70
2023-05-09T07:18:21.302Z,22.42
2023-05-09T07:20:48.206Z,23.90
2023-05-09T07:23:15.157Z,22.92
2023-05-09T07:25:41.972Z,24.05
2023-05-09T07:28:08.753Z,22.95
2023-05-09T07:30:36.753Z,25.23
2023-05-09T07:33:03.754Z,22.73
2023-05-09T07:35:30.732Z,23.35
2023-05-09T07:37:57.546Z,23.98
2023-05-09T07:40:24.437Z,25.33
2023-05-09T07:42:53.394Z,28.10
2023-05-09T07:45:22.826Z,25.65
2023-05-09T07:47:53.406Z,22.80
2023-05-09T07:50:23.359Z,25.08
2023-05-09T07:52:51.328Z,23.27
2023-05-09T07:55:18.413Z,21.88
2023-05-09T07:57:48.614Z,19.98
2023-05-09T08:00:16.494Z,22.70
2023-05-09T08:02:43.446Z,21.92
2023-05-09T08:05:11.636Z,25.95
2023-05-09T08:07:38.614Z,25.23
2023-05-09T08:10:06.452Z,26.35
2023-05-09T08:12:33.396Z,22.75
2023-05-09T08:15:00.657Z,22.98
2023-05-09T08:17:27.804Z,22.88
2023-05-09T08:19:55.177Z,21.08
2023-05-09T08:22:22.118Z,20.88
2023-05-09T08:24:48.969Z,22.40
2023-05-09T08:27:15.976Z,22.85
2023-05-09T08:29:43.420Z,20.60
2023-05-09T08:32:10.396Z,20.70
2023-05-09T08:34:37.225Z,25.10
2023-05-09T08:37:04.685Z,17.98
2023-05-09T08:39:31.703Z,18.65
2023-05-09T08:42:00.042Z,18.48
2023-05-09T08:44:28.805Z,16.95
2023-05-09T08:46:59.145Z,16.80
2023-05-09T08:49:26.801Z,13.48
2023-05-09T08:51:54.488Z,14.70
2023-05-09T08:54:22.991Z,15.15
2023-05-09T08:56:51.054Z,13.40
2023-05-09T08:59:19.361Z,17.35
2023-05-09T09:01:46.588Z,14.90
2023-05-09T09:04:13.523Z,16.65
2023-05-09T09:06:40.964Z,13.68
2023-05-09T09:09:11.488Z,14.13
2023-05-09T09:11:40.297Z,15.18
2023-05-09T09:14:15.312Z,13.65
2023-05-09T09:16:44.436Z,16.50
2023-05-09T09:19:16.489Z,12.77
2023-05-09T09:21:45.228Z,12.75
2023-05-09T09:24:18.891Z,14.10
2023-05-09T09:26:51.045Z,14.50
2023-05-09T09:29:20.985Z,13.52
2023-05-09T09:31:52.029Z,12.60
2023-05-09T09:34:23.635Z,12.93
2023-05-09T09:36:50.728Z,11.63
2023-05-09T09:39:17.594Z,11.80
2023-05-09T09:41:45.126Z,13.10
2023-05-09T09:44:22.589Z,12.75
2023-05-09T09:46:54.488Z,10.85
2023-05-09T09:49:23.546Z,12.02
2023-05-09T09:51:56.026Z,11.70
2023-05-09T09:54:27.156Z,10.45
2023-05-09T09:56:55.095Z,10.57
2023-05-09T09:59:26.802Z,10.27
2023-05-09T10:01:56.312Z,10.40
2023-05-09T10:04:24.119Z,11.98
2023-05-09T10:07:05.807Z,11.70
2023-05-09T10:09:34.052Z,12.17
2023-05-09T10:12:09.727Z,10.15
2023-05-09T10:14:38.347Z,11.82
2023-05-09T10:17:14.335Z,12.02
2023-05-09T10:19:46.473Z,12.10
2023-05-09T10:22:15.605Z,10.85
2023-05-09T10:24:57.748Z,10.75
2023-05-09T10:27:31.509Z,12.73
2023-05-09T10:30:08.200Z,11.45
2023-05-09T10:32:43.709Z,12.40
2023-05-09T10:35:13.876Z,13.95
2023-05-09T10:37:41.191Z,14.00
2023-05-09T10:40:09.377Z,12.05
2023-05-09T10:42:38.801Z,13.98
2023-05-09T10:45:07.202Z,11.70
2023-05-09T10:47:34.271Z,13.85
2023-05-09T10:50:01.863Z,13.15
2023-05-09T10:52:35.065Z,11.20
2023-05-09T10:57:54.049Z,14.52
2023-05-09T11:00:53.800Z,12.05
2023-05-09T11:03:22.879Z,13.43
2023-05-09T11:05:56.353Z,12.68
2023-05-09T11:08:31.116Z,13.10
2023-05-09T11:11:02.443Z,15.25
2023-05-09T11:13:36.172Z,11.18
2023-05-09T11:16:03.451Z,11.93
2023-05-09T11:18:32.374Z,10.88
2023-05-09T11:20:59.898Z,13.55
2023-05-09T11:23:27.816Z,11.75
2023-05-09T11:26:06.551Z,18.00
2023-05-09T11:28:38.311Z,11.93
2023-05-09T11:31:19.158Z,12.63
2023-05-09T11:33:49.223Z,12.70
2023-05-09T11:36:19.977Z,13.98
2023-05-09T11:38:48.045Z,11.82
2023-05-09T11:41:15.555Z,11.93
2023-05-09T11:43:44.686Z,12.77
2023-05-09T11:46:13.145Z,13.50
2023-05-09T11:48:42.409Z,16.02
2023-05-09T11:51:19.524Z,18.58
2023-05-09T11:53:50.161Z,10.80
2023-05-09T11:56:17.742Z,14.13
2023-05-09T11:58:44.962Z,15.48
2023-05-09T12:01:12.659Z,12.90
2023-05-09T12:03:46.204Z,13.60
2023-05-09T12:06:18.305Z,11.55
2023-05-09T12:08:46.383Z,13.93
2023-05-09T12:11:15.110Z,16.73
2023-05-09T12:13:46.906Z,12.20
2023-05-09T12:16:13.870Z,10.55
2023-05-09T12:18:48.916Z,15.90
2023-05-09T12:21:16.947Z,15.02
2023-05-09T12:23:44.515Z,13.60
2023-05-09T12:26:11.691Z,13.75
2023-05-09T12:28:39.279Z,12.32
2023-05-09T12:31:07.161Z,14.88
2023-05-09T12:33:34.914Z,16.23
2023-05-09T12:36:08.644Z,12.90
2023-05-09T12:38:38.900Z,14.05
2023-05-09T12:41:12.974Z,17.42
2023-05-09T12:43:49.261Z,13.80
2023-05-09T12:46:20.181Z,13.85
2023-05-09T12:48:48.308Z,12.57
2023-05-09T12:51:24.311Z,13.80
2023-05-09T12:54:00.133Z,13.65
2023-05-09T12:56:27.013Z,13.35
2023-05-09T12:58:55.907Z,13.75
2023-05-09T13:01:27.935Z,11.85
2023-05-09T13:04:06.646Z,13.82
2023-05-09T13:06:35.850Z,11.00
2023-05-09T13:09:05.742Z,10.38
2023-05-09T13:11:33.260Z,10.63
2023-05-09T13:17:15.172Z,9.15
2023-05-09T13:19:50.759Z,9.07
2023-05-09T13:22:17.876Z,8.65
2023-05-09T13:24:47.692Z,8.43
2023-05-09T13:27:14.845Z,8.48
2023-05-09T13:29:44.673Z,10.88
2023-05-09T13:32:11.624Z,9.52
2023-05-09T13:34:38.471Z,13.40
2023-05-09T13:37:06.405Z,9.90
2023-05-09T13:39:33.347Z,9.30
2023-05-09T13:42:01.464Z,9.05
2023-05-09T13:44:31.088Z,10.95
2023-05-09T13:47:00.547Z,12.05
2023-05-09T13:49:30.711Z,10.48
2023-05-09T13:51:57.686Z,11.55
2023-05-09T13:54:24.523Z,9.63
2023-05-09T13:56:54.530Z,9.73
2023-05-09T13:59:21.746Z,9.85
2023-05-09T14:01:48.771Z,9.43
2023-05-09T14:04:15.863Z,9.63
2023-05-09T14:06:48.238Z,8.57
2023-05-09T14:11:43.111Z,8.45
2023-05-09T14:14:10.110Z,6.85
2023-05-09T14:16:37.182Z,6.28
2023-05-09T14:19:04.215Z,6.70
2023-05-09T14:21:34.056Z,11.25
2023-05-09T14:24:04.171Z,6.93
2023-05-09T14:26:33.311Z,10.95
2023-05-09T14:29:00.237Z,7.28
2023-05-09T14:31:27.255Z,7.75
2023-05-09T14:33:54.448Z,8.23
2023-05-09T14:36:21.977Z,7.63
2023-05-09T14:38:48.935Z,6.53
2023-05-09T14:41:20.206Z,7.47
2023-05-09T14:43:48.718Z,6.80
2023-05-09T14:46:15.994Z,7.60
2023-05-09T14:48:43.904Z,8.38
2023-05-09T14:51:11.883Z,9.70
2023-05-09T14:53:42.198Z,8.18
2023-05-09T14:56:10.570Z,8.65
2023-05-09T14:58:37.590Z,7.82
2023-05-09T15:01:04.721Z,7.40
2023-05-09T15:03:32.176Z,7.45
2023-05-09T15:05:59.343Z,9.60
2023-05-09T15:08:27.047Z,7.43
2023-05-09T15:10:53.945Z,7.95
2023-05-09T15:13:21.102Z,10.30
2023-05-09T15:15:48.345Z,8.13
2023-05-09T15:18:17.005Z,7.82
2023-05-09T15:20:45.073Z,7.93
2023-05-09T15:23:13.212Z,7.82
2023-05-09T15:25:43.118Z,7.93
2023-05-09T15:28:10.111Z,11.52
2023-05-09T15:30:39.075Z,8.00
2023-05-09T15:33:08.052Z,7.10
2023-05-09T15:35:35.123Z,7.35
2023-05-09T15:38:01.922Z,7.10
2023-05-09T15:40:28.823Z,7.28
2023-05-09T15:42:55.617Z,9.85
2023-05-09T15:45:22.717Z,7.50
2023-05-09T15:47:49.706Z,7.07
2023-05-09T15:50:17.166Z,5.78
2023-05-09T15:52:44.451Z,6.22
2023-05-09T15:55:12.955Z,5.78
2023-05-09T15:57:40.074Z,6.10
2023-05-09T16:00:07.498Z,5.00
2023-05-09T16:05:19.720Z,3.33
2023-05-09T16:07:47.542Z,2.60
2023-05-09T16:10:14.501Z,2.65
2023-05-09T16:16:12.878Z,2.17
2023-05-09T16:22:52.334Z,6.63
2023-05-09T16:25:19.742Z,2.60
2023-05-09T16:27:46.703Z,2.28
2023-05-09T16:30:14.419Z,4.18
2023-05-09T16:32:41.445Z,2.65
2023-05-09T16:35:08.718Z,2.88
2023-05-09T16:37:36.633Z,3.03
2023-05-09T16:40:04.877Z,3.15
2023-05-09T16:42:32.995Z,3.22
2023-05-09T16:45:00.186Z,3.78
2023-05-09T16:47:27.112Z,4.88
2023-05-09T16:49:57.160Z,4.55
2023-05-09T16:52:24.051Z,5.22
2023-05-09T16:54:50.962Z,5.45
2023-05-09T16:57:18.148Z,5.45
2023-05-09T16:59:46.060Z,5.85
2023-05-09T17:02:13.370Z,6.68
2023-05-09T17:04:40.456Z,5.97
2023-05-09T17:07:07.529Z,4.70
2023-05-09T17:09:35.320Z,4.97
2023-05-09T17:12:03.520Z,7.00
2023-05-09T17:17:32.393Z,6.75
2023-05-09T17:20:01.115Z,6.28
2023-05-09T17:22:29.694Z,6.57
2023-05-09T17:24:57.420Z,6.43
2023-05-09T17:27:24.334Z,6.68
2023-05-09T17:29:51.535Z,7.95
2023-05-09T17:32:18.492Z,7.43
2023-05-09T17:34:46.701Z,9.50
2023-05-09T17:37:13.573Z,7.45
2023-05-09T17:39:42.325Z,7.72
2023-05-09T17:42:10.969Z,11.18
2023-05-09T17:44:39.574Z,9.70
2023-05-09T17:47:07.005Z,8.88
2023-05-09T17:49:33.887Z,9.52
2023-05-09T17:52:01.398Z,10.95
2023-05-09T17:54:28.317Z,11.45
2023-05-09T17:57:01.365Z,10.65
2023-05-09T17:59:28.826Z,10.48
2023-05-09T18:01:55.907Z,10.35
2023-05-09T18:04:23.074Z,11.20
2023-05-09T18:06:50.143Z,10.48
2023-05-09T18:09:17.285Z,11.02
2023-05-09T18:11:44.501Z,10.77
2023-05-09T18:14:12.825Z,12.45
2023-05-09T18:16:39.975Z,11.50
2023-05-09T18:19:07.030Z,11.93
2023-05-09T18:21:33.833Z,12.32
2023-05-09T18:24:04.309Z,12.43
2023-05-09T18:26:34.237Z,11.15
2023-05-09T18:29:04.341Z,12.57
2023-05-09T18:31:38.749Z,12.48
2023-05-09T18:34:06.154Z,11.77
2023-05-09T18:36:33.263Z,13.85
2023-05-09T18:39:00.357Z,13.20
2023-05-09T18:41:29.244Z,13.95
2023-05-09T18:43:58.301Z,12.27
2023-05-09T18:46:27.736Z,11.98
2023-05-09T18:48:54.799Z,10.20
2023-05-09T18:51:21.804Z,11.00
2023-05-09T18:53:49.374Z,10.15
2023-05-09T18:56:20.279Z,10.65
2023-05-09T18:58:50.336Z,11.65
2023-05-09T19:01:19.046Z,11.38
2023-05-09T19:03:47.615Z,10.70
2023-05-09T19:06:15.246Z,10.40
2023-05-09T19:08:43.384Z,11.05
2023-05-09T19:11:16.013Z,11.20
2023-05-09T19:13:48.789Z,13.73
2023-05-09T19:16:18.673Z,11.93
2023-05-09T19:18:45.758Z,14.38
2023-05-09T19:21:13.740Z,12.35
2023-05-09T19:23:40.764Z,13.30
2023-05-09T19:26:08.400Z,13.50
2023-05-09T19:28:35.609Z,13.45
2023-05-09T19:31:05.064Z,15.25
2023-05-09T19:33:35.646Z,13.52
2023-05-09T19:36:02.545Z,11.65
2023-05-09T19:38:32.421Z,13.50
2023-05-09T19:40:59.369Z,13.10
2023-05-09T19:43:26.254Z,14.82
2023-05-09T19:45:53.236Z,13.95
2023-05-09T19:48:20.072Z,14.68
2023-05-09T19:50:46.981Z,13.25
2023-05-09T19:53:14.019Z,14.40
2023-05-09T19:56:08.047Z,16.95
2023-05-09T19:58:35.376Z,13.40
2023-05-09T20:01:02.198Z,16.15
2023-05-09T20:03:29.352Z,15.95
2023-05-09T20:05:56.268Z,13.38
2023-05-09T20:08:25.497Z,14.20
2023-05-09T20:10:53.178Z,15.30
2023-05-09T20:13:20.452Z,15.85
2023-05-09T20:15:47.932Z,15.30
2023-05-09T20:18:16.238Z,16.10
2023-05-09T20:20:46.257Z,13.45
2023-05-09T20:23:13.257Z,13.27
2023-05-09T20:25:40.357Z,10.98
2023-05-09T20:28:07.256Z,10.77
2023-05-09T20:30:34.471Z,9.45
2023-05-09T20:33:01.934Z,8.15
2023-05-09T20:35:29.077Z,10.40
2023-05-09T20:37:56.050Z,10.68
2023-05-09T20:40:23.526Z,12.90
2023-05-09T20:42:51.362Z,10.60
2023-05-09T20:45:18.415Z,11.80
2023-05-09T20:47:45.537Z,11.15
2023-05-09T20:50:12.586Z,11.70
2023-05-09T20:52:39.537Z,12.77
2023-05-09T20:55:06.811Z,11.48
2023-05-09T20:57:33.809Z,12.45
2023-05-09T21:00:00.764Z,12.77
2023-05-09T21:02:28.045Z,14.50
2023-05-09T21:04:55.168Z,16.42
2023-05-09T21:07:22.323Z,18.10
2023-05-09T21:09:50.685Z,18.08
2023-05-09T21:12:20.510Z,15.40
2023-05-09T21:14:47.694Z,15.32
2023-05-09T21:17:14.719Z,15.73
2023-05-09T21:19:41.842Z,17.10
2023-05-09T21:22:16.142Z,15.73
2023-05-09T21:24:43.262Z,16.15
2023-05-09T21:27:10.210Z,18.73
2023-05-09T21:29:39.772Z,20.80
2023-05-09T21:32:16.887Z,19.05
2023-05-09T21:34:43.765Z,18.15
2023-05-09T21:37:13.249Z,18.83
2023-05-09T21:39:40.270Z,18.58
2023-05-09T21:42:07.732Z,19.63
2023-05-09T21:44:36.157Z,21.58
2023-05-09T21:47:03.312Z,21.02
2023-05-09T21:49:30.462Z,20.58
2023-05-09T21:51:57.308Z,24.15
2023-05-09T21:54:24.233Z,21.73
2023-05-09T21:56:51.129Z,23.63
2023-05-09T21:59:20.749Z,24.58
2023-05-09T22:01:47.958Z,25.38
2023-05-09T22:04:15.415Z,25.77
2023-05-09T22:06:42.723Z,28.77
2023-05-09T22:09:12.078Z,30.15
2023-05-09T22:11:39.856Z,28.98
2023-05-09T22:14:07.521Z,26.95
2023-05-09T22:16:34.444Z,30.38
2023-05-09T22:19:01.829Z,30.33
2023-05-09T22:21:28.882Z,31.67
2023-05-09T22:23:57.319Z,32.13
2023-05-09T22:26:24.301Z,35.67
2023-05-09T22:28:51.455Z,36.03
2023-05-09T22:31:18.307Z,38.10
2023-05-09T22:33:45.021Z,36.25
2023-05-09T22:36:11.967Z,41.42
2023-05-09T22:38:38.820Z,35.30
2023-05-09T22:41:05.974Z,38.28
2023-05-09T22:43:38.599Z,42.22
2023-05-09T22:46:07.160Z,35.92
2023-05-09T22:48:34.452Z,36.78
2023-05-09T22:51:01.607Z,45.42
2023-05-09T22:53:28.458Z,44.17
2023-05-09T22:55:55.838Z,46.10
2023-05-09T22:58:22.751Z,52.17
2023-05-09T23:00:49.824Z,55.67
2023-05-09T23:03:17.899Z,52.60
2023-05-09T23:05:44.939Z,58.28
2023-05-09T23:08:11.805Z,57.80
2023-05-09T23:10:38.656Z,62.10
2023-05-09T23:13:05.565Z,60.25
2023-05-09T23:15:32.899Z,55.00
2023-05-09T23:17:59.998Z,60.60
2023-05-09T23:20:26.976Z,65.25
2023-05-09T23:22:53.771Z,68.20
2023-05-09T23:25:20.668Z,63.30
2023-05-09T23:27:47.560Z,69.57
2023-05-09T23:30:15.168Z,75.70
2023-05-09T23:32:42.373Z,77.75
2023-05-09T23:35:09.959Z,75.72
2023-05-09T23:37:36.813Z,71.93
2023-05-09T23:40:04.576Z,68.90
2023-05-09T23:42:31.486Z,85.95
2023-05-09T23:44:59.644Z,85.97
2023-05-09T23:47:26.731Z,78.80
2023-05-09T23:49:53.604Z,84.70
2023-05-09T23:52:20.618Z,79.47
2023-05-09T23:54:47.580Z,82.13
2023-05-09T23:57:14.704Z,80.18
2023-05-09T23:59:44.882Z,91.28
